sensor_id;sensor_type;location;lat;lon;timestamp;P1;durP1;ratioP1;P2;durP2;ratioP2
27580;SDS011;63557;52.302;7.964;2022-12-08T00:02:54;37.30;;;23.48;;
27580;SDS011;63557;52.302;7.964;2022-12-08T00:07:54;40.23;;;21.40;;
27580;SDS011;63557;52.302;7.964;2022-12-08T00:13:13;33.38;;;21.15;;
27580;SDS011;63557;52.302;7.964;2022-12-08T00:18:14;32.23;;;21.33;;
27580;SDS011;63557;52.302;7.964;2022-12-08T00:23:14;33.27;;;21.00;;
27580;SDS011;63557;52.302;7.964;2022-12-08T00:28:14;37.70;;;21.23;;
27580;SDS011;63557;52.302;7.964;2022-12-08T00:33:15;37.10;;;20.57;;
27580;SDS011;63557;52.302;7.964;2022-12-08T00:38:15;36.80;;;21.77;;
27580;SDS011;63557;52.302;7.964;2022-12-08T00:43:15;35.47;;;21.58;;
27580;SDS011;63557;52.302;7.964;2022-12-08T00:48:16;34.40;;;20.40;;
27580;SDS011;63557;52.302;7.964;2022-12-08T00:53:16;33.47;;;20.10;;
27580;SDS011;63557;52.302;7.964;2022-12-08T00:58:16;33.83;;;20.98;;
27580;SDS011;63557;52.302;7.964;2022-12-08T01:03:17;39.33;;;20.47;;
27580;SDS011;63557;52.302;7.964;2022-12-08T01:08:17;37.50;;;19.95;;
27580;SDS011;63557;52.302;7.964;2022-12-08T01:13:17;36.00;;;20.50;;
27580;SDS011;63557;52.302;7.964;2022-12-08T01:18:18;36.13;;;22.23;;
27580;SDS011;63557;52.302;7.964;2022-12-08T01:23:18;39.90;;;23.53;;
27580;SDS011;63557;52.302;7.964;2022-12-08T01:28:18;44.38;;;24.88;;
27580;SDS011;63557;52.302;7.964;2022-12-08T01:33:19;44.90;;;27.07;;
27580;SDS011;63557;52.302;7.964;2022-12-08T01:38:19;45.03;;;25.17;;
27580;SDS011;63557;52.302;7.964;2022-12-08T01:43:20;45.10;;;27.48;;
27580;SDS011;63557;52.302;7.964;2022-12-08T01:48:23;48.38;;;28.65;;
27580;SDS011;63557;52.302;7.964;2022-12-08T01:53:25;60.72;;;32.50;;
27580;SDS011;63557;52.302;7.964;2022-12-08T01:58:34;60.60;;;33.33;;
27580;SDS011;63557;52.302;7.964;2022-12-08T02:08:35;64.20;;;34.67;;
27580;SDS011;63557;52.302;7.964;2022-12-08T02:13:38;68.75;;;35.25;;
27580;SDS011;63557;52.302;7.964;2022-12-08T02:44:24;70.78;;;38.45;;
27580;SDS011;63557;52.302;7.964;2022-12-08T02:49:28;76.18;;;41.75;;
27580;SDS011;63557;52.302;7.964;2022-12-08T02:54:28;76.40;;;39.10;;
27580;SDS011;63557;52.302;7.964;2022-12-08T02:59:40;66.07;;;39.67;;
27580;SDS011;63557;52.302;7.964;2022-12-08T03:04:45;66.22;;;34.65;;
27580;SDS011;63557;52.302;7.964;2022-12-08T03:09:50;68.88;;;39.05;;
27580;SDS011;63557;52.302;7.964;2022-12-08T03:14:53;65.88;;;36.05;;
27580;SDS011;63557;52.302;7.964;2022-12-08T03:19:55;66.90;;;37.72;;
27580;SDS011;63557;52.302;7.964;2022-12-08T03:24:57;62.10;;;36.92;;
27580;SDS011;63557;52.302;7.964;2022-12-08T03:29:58;72.63;;;36.55;;
27580;SDS011;63557;52.302;7.964;2022-12-08T03:35:00;66.35;;;38.78;;
27580;SDS011;63557;52.302;7.964;2022-12-08T03:40:02;62.50;;;36.95;;
27580;SDS011;63557;52.302;7.964;2022-12-08T03:45:02;65.97;;;37.25;;
27580;SDS011;63557;52.302;7.964;2022-12-08T03:50:03;63.72;;;36.22;;
27580;SDS011;63557;52.302;7.964;2022-12-08T03:55:04;59.70;;;35.42;;
27580;SDS011;63557;52.302;7.964;2022-12-08T04:00:05;57.08;;;34.85;;
27580;SDS011;63557;52.302;7.964;2022-12-08T04:05:06;54.42;;;31.38;;
27580;SDS011;63557;52.302;7.964;2022-12-08T04:10:06;49.13;;;31.30;;
27580;SDS011;63557;52.302;7.964;2022-12-08T04:15:07;56.53;;;31.67;;
27580;SDS011;63557;52.302;7.964;2022-12-08T04:20:07;51.55;;;31.63;;
27580;SDS011;63557;52.302;7.964;2022-12-08T04:25:08;53.67;;;32.42;;
27580;SDS011;63557;52.302;7.964;2022-12-08T04:30:08;49.75;;;31.23;;
27580;SDS011;63557;52.302;7.964;2022-12-08T04:35:09;49.67;;;31.35;;
27580;SDS011;63557;52.302;7.964;2022-12-08T04:40:10;45.75;;;28.65;;
27580;SDS011;63557;52.302;7.964;2022-12-08T04:45:11;50.67;;;31.40;;
27580;SDS011;63557;52.302;7.964;2022-12-08T04:50:11;50.23;;;31.40;;
27580;SDS011;63557;52.302;7.964;2022-12-08T04:55:12;53.88;;;31.50;;
27580;SDS011;63557;52.302;7.964;2022-12-08T05:00:12;44.70;;;28.10;;
27580;SDS011;63557;52.302;7.964;2022-12-08T05:05:13;48.67;;;30.02;;
27580;SDS011;63557;52.302;7.964;2022-12-08T05:10:13;41.23;;;27.53;;
27580;SDS011;63557;52.302;7.964;2022-12-08T05:15:13;42.80;;;28.67;;
27580;SDS011;63557;52.302;7.964;2022-12-08T05:20:14;48.47;;;28.33;;
27580;SDS011;63557;52.302;7.964;2022-12-08T05:25:14;39.85;;;25.90;;
27580;SDS011;63557;52.302;7.964;2022-12-08T05:30:15;40.20;;;25.55;;
27580;SDS011;63557;52.302;7.964;2022-12-08T05:35:15;45.03;;;26.83;;
27580;SDS011;63557;52.302;7.964;2022-12-08T05:40:15;42.75;;;27.10;;
27580;SDS011;63557;52.302;7.964;2022-12-08T05:45:16;42.13;;;26.48;;
27580;SDS011;63557;52.302;7.964;2022-12-08T05:50:16;46.27;;;26.40;;
27580;SDS011;63557;52.302;7.964;2022-12-08T05:55:17;47.45;;;27.02;;
27580;SDS011;63557;52.302;7.964;2022-12-08T06:00:18;45.42;;;27.40;;
27580;SDS011;63557;52.302;7.964;2022-12-08T06:05:18;40.95;;;25.30;;
27580;SDS011;63557;52.302;7.964;2022-12-08T06:10:18;33.17;;;21.97;;
27580;SDS011;63557;52.302;7.964;2022-12-08T06:15:19;37.78;;;25.15;;
27580;SDS011;63557;52.302;7.964;2022-12-08T06:20:19;38.00;;;24.73;;
27580;SDS011;63557;52.302;7.964;2022-12-08T06:25:20;41.17;;;23.73;;
27580;SDS011;63557;52.302;7.964;2022-12-08T06:30:20;40.63;;;22.83;;
27580;SDS011;63557;52.302;7.964;2022-12-08T06:35:21;36.10;;;22.00;;
27580;SDS011;63557;52.302;7.964;2022-12-08T06:40:21;34.73;;;21.70;;
27580;SDS011;63557;52.302;7.964;2022-12-08T06:45:21;35.57;;;20.60;;
27580;SDS011;63557;52.302;7.964;2022-12-08T06:50:22;32.97;;;19.00;;
27580;SDS011;63557;52.302;7.964;2022-12-08T06:55:22;32.97;;;20.67;;
27580;SDS011;63557;52.302;7.964;2022-12-08T07:00:22;33.03;;;21.40;;
27580;SDS011;63557;52.302;7.964;2022-12-08T07:05:23;49.83;;;21.42;;
27580;SDS011;63557;52.302;7.964;2022-12-08T07:10:23;38.30;;;19.33;;
27580;SDS011;63557;52.302;7.964;2022-12-08T07:15:24;35.37;;;21.87;;
27580;SDS011;63557;52.302;7.964;2022-12-08T07:20:24;38.87;;;22.17;;
27580;SDS011;63557;52.302;7.964;2022-12-08T07:25:24;34.87;;;22.23;;
27580;SDS011;63557;52.302;7.964;2022-12-08T07:30:25;37.75;;;23.35;;
27580;SDS011;63557;52.302;7.964;2022-12-08T07:35:26;40.80;;;23.25;;
27580;SDS011;63557;52.302;7.964;2022-12-08T07:40:26;37.20;;;22.00;;
27580;SDS011;63557;52.302;7.964;2022-12-08T07:45:26;36.40;;;22.83;;
27580;SDS011;63557;52.302;7.964;2022-12-08T07:50:27;34.37;;;21.77;;
27580;SDS011;63557;52.302;7.964;2022-12-08T07:55:27;39.00;;;23.67;;
27580;SDS011;63557;52.302;7.964;2022-12-08T08:00:27;40.85;;;22.88;;
27580;SDS011;63557;52.302;7.964;2022-12-08T08:05:28;31.43;;;20.00;;
27580;SDS011;63557;52.302;7.964;2022-12-08T08:10:28;34.77;;;19.43;;
27580;SDS011;63557;52.302;7.964;2022-12-08T08:15:28;31.13;;;18.93;;
27580;SDS011;63557;52.302;7.964;2022-12-08T08:20:29;29.88;;;17.65;;
27580;SDS011;63557;52.302;7.964;2022-12-08T08:25:30;34.07;;;18.47;;
27580;SDS011;63557;52.302;7.964;2022-12-08T08:30:30;30.33;;;17.43;;
27580;SDS011;63557;52.302;7.964;2022-12-08T08:35:31;30.17;;;18.80;;
27580;SDS011;63557;52.302;7.964;2022-12-08T08:40:32;32.85;;;19.38;;
27580;SDS011;63557;52.302;7.964;2022-12-08T08:45:32;31.27;;;18.57;;
27580;SDS011;63557;52.302;7.964;2022-12-08T08:50:32;30.38;;;18.42;;
27580;SDS011;63557;52.302;7.964;2022-12-08T08:55:33;37.97;;;20.50;;
27580;SDS011;63557;52.302;7.964;2022-12-08T09:00:33;32.77;;;20.57;;
27580;SDS011;63557;52.302;7.964;2022-12-08T09:05:36;32.78;;;20.55;;
27580;SDS011;63557;52.302;7.964;2022-12-08T09:10:36;29.85;;;18.73;;
27580;SDS011;63557;52.302;7.964;2022-12-08T09:15:37;32.08;;;18.38;;
27580;SDS011;63557;52.302;7.964;2022-12-08T09:20:38;28.38;;;16.55;;
27580;SDS011;63557;52.302;7.964;2022-12-08T09:25:38;28.40;;;16.60;;
27580;SDS011;63557;52.302;7.964;2022-12-08T09:30:39;26.60;;;15.87;;
27580;SDS011;63557;52.302;7.964;2022-12-08T09:35:39;24.60;;;15.18;;
27580;SDS011;63557;52.302;7.964;2022-12-08T09:40:44;25.25;;;15.73;;
27580;SDS011;63557;52.302;7.964;2022-12-08T09:45:47;24.85;;;15.40;;
27580;SDS011;63557;52.302;7.964;2022-12-08T09:50:55;21.92;;;14.80;;
27580;SDS011;63557;52.302;7.964;2022-12-08T09:56:02;26.52;;;16.40;;
27580;SDS011;63557;52.302;7.964;2022-12-08T10:01:06;24.38;;;13.10;;
27580;SDS011;63557;52.302;7.964;2022-12-08T10:16:51;20.83;;;12.57;;
27580;SDS011;63557;52.302;7.964;2022-12-08T10:21:54;81.43;;;44.15;;
27580;SDS011;63557;52.302;7.964;2022-12-08T10:26:55;17.48;;;10.55;;
27580;SDS011;63557;52.302;7.964;2022-12-08T10:31:57;14.82;;;9.73;;
27580;SDS011;63557;52.302;7.964;2022-12-08T10:36:57;13.68;;;9.15;;
27580;SDS011;63557;52.302;7.964;2022-12-08T10:47:12;15.10;;;10.27;;
27580;SDS011;63557;52.302;7.964;2022-12-08T10:52:22;16.98;;;11.20;;
27580;SDS011;63557;52.302;7.964;2022-12-08T10:57:23;16.23;;;10.73;;
27580;SDS011;63557;52.302;7.964;2022-12-08T11:02:24;17.08;;;11.32;;
27580;SDS011;63557;52.302;7.964;2022-12-08T11:07:24;15.55;;;10.65;;
27580;SDS011;63557;52.302;7.964;2022-12-08T11:12:26;14.57;;;10.15;;
27580;SDS011;63557;52.302;7.964;2022-12-08T11:17:34;14.50;;;10.60;;
27580;SDS011;63557;52.302;7.964;2022-12-08T11:22:39;14.55;;;10.13;;
27580;SDS011;63557;52.302;7.964;2022-12-08T11:27:43;14.10;;;9.23;;
27580;SDS011;63557;52.302;7.964;2022-12-08T11:32:46;11.63;;;9.17;;
27580;SDS011;63557;52.302;7.964;2022-12-08T11:37:46;13.65;;;9.07;;
27580;SDS011;63557;52.302;7.964;2022-12-08T11:43:07;10.93;;;8.15;;
27580;SDS011;63557;52.302;7.964;2022-12-08T11:48:13;10.48;;;7.53;;
27580;SDS011;63557;52.302;7.964;2022-12-08T11:53:25;13.98;;;8.25;;
27580;SDS011;63557;52.302;7.964;2022-12-08T11:58:35;12.40;;;8.75;;
27580;SDS011;63557;52.302;7.964;2022-12-08T12:03:38;11.27;;;8.48;;
27580;SDS011;63557;52.302;7.964;2022-12-08T12:08:47;13.98;;;8.80;;
27580;SDS011;63557;52.302;7.964;2022-12-08T12:13:53;12.10;;;7.90;;
27580;SDS011;63557;52.302;7.964;2022-12-08T12:18:58;11.95;;;7.65;;
27580;SDS011;63557;52.302;7.964;2022-12-08T12:24:00;9.75;;;7.40;;
27580;SDS011;63557;52.302;7.964;2022-12-08T12:29:06;10.38;;;7.07;;
27580;SDS011;63557;52.302;7.964;2022-12-08T12:34:13;11.00;;;7.18;;
27580;SDS011;63557;52.302;7.964;2022-12-08T12:39:14;11.25;;;6.72;;
27580;SDS011;63557;52.302;7.964;2022-12-08T12:54:36;12.05;;;7.05;;
27580;SDS011;63557;52.302;7.964;2022-12-08T13:04:52;7.65;;;6.40;;
27580;SDS011;63557;52.302;7.964;2022-12-08T13:09:57;11.63;;;7.32;;
27580;SDS011;63557;52.302;7.964;2022-12-08T13:15:01;11.65;;;6.85;;
27580;SDS011;63557;52.302;7.964;2022-12-08T13:20:03;9.75;;;6.93;;
27580;SDS011;63557;52.302;7.964;2022-12-08T13:25:43;10.23;;;7.13;;
27580;SDS011;63557;52.302;7.964;2022-12-08T13:30:44;11.57;;;7.32;;
27580;SDS011;63557;52.302;7.964;2022-12-08T13:41:16;11.18;;;8.43;;
27580;SDS011;63557;52.302;7.964;2022-12-08T13:46:21;15.77;;;7.88;;
27580;SDS011;63557;52.302;7.964;2022-12-08T13:51:32;10.13;;;7.65;;
27580;SDS011;63557;52.302;7.964;2022-12-08T13:56:39;12.32;;;8.05;;
27580;SDS011;63557;52.302;7.964;2022-12-08T14:01:42;18.05;;;9.18;;
27580;SDS011;63557;52.302;7.964;2022-12-08T14:06:44;12.10;;;8.48;;
27580;SDS011;63557;52.302;7.964;2022-12-08T14:11:46;12.50;;;9.65;;
27580;SDS011;63557;52.302;7.964;2022-12-08T14:16:57;13.43;;;8.68;;
27580;SDS011;63557;52.302;7.964;2022-12-08T14:22:12;12.07;;;9.00;;
27580;SDS011;63557;52.302;7.964;2022-12-08T14:27:14;14.07;;;9.10;;
27580;SDS011;63557;52.302;7.964;2022-12-08T14:32:32;13.40;;;9.23;;
27580;SDS011;63557;52.302;7.964;2022-12-08T14:42:41;14.17;;;9.60;;
27580;SDS011;63557;52.302;7.964;2022-12-08T14:47:41;13.73;;;9.75;;
27580;SDS011;63557;52.302;7.964;2022-12-08T14:52:42;17.83;;;11.95;;
27580;SDS011;63557;52.302;7.964;2022-12-08T14:57:46;21.30;;;13.07;;
27580;SDS011;63557;52.302;7.964;2022-12-08T15:02:47;18.67;;;13.00;;
27580;SDS011;63557;52.302;7.964;2022-12-08T15:07:48;15.57;;;9.93;;
27580;SDS011;63557;52.302;7.964;2022-12-08T15:18:14;16.25;;;9.73;;
27580;SDS011;63557;52.302;7.964;2022-12-08T15:23:24;19.40;;;12.02;;
27580;SDS011;63557;52.302;7.964;2022-12-08T15:28:26;14.95;;;9.45;;
27580;SDS011;63557;52.302;7.964;2022-12-08T15:33:27;19.85;;;11.65;;
27580;SDS011;63557;52.302;7.964;2022-12-08T15:38:27;18.23;;;11.10;;
27580;SDS011;63557;52.302;7.964;2022-12-08T15:43:29;17.27;;;10.75;;
27580;SDS011;63557;52.302;7.964;2022-12-08T15:48:29;14.60;;;10.13;;
27580;SDS011;63557;52.302;7.964;2022-12-08T15:53:30;16.77;;;10.50;;
27580;SDS011;63557;52.302;7.964;2022-12-08T15:58:30;14.53;;;10.27;;
27580;SDS011;63557;52.302;7.964;2022-12-08T16:03:31;18.15;;;11.27;;
27580;SDS011;63557;52.302;7.964;2022-12-08T16:08:31;21.98;;;11.20;;
27580;SDS011;63557;52.302;7.964;2022-12-08T16:13:31;21.80;;;11.13;;
27580;SDS011;63557;52.302;7.964;2022-12-08T16:18:50;24.30;;;15.00;;
27580;SDS011;63557;52.302;7.964;2022-12-08T16:23:50;19.50;;;11.40;;
27580;SDS011;63557;52.302;7.964;2022-12-08T16:28:51;17.47;;;11.10;;
27580;SDS011;63557;52.302;7.964;2022-12-08T16:33:51;20.45;;;11.45;;
27580;SDS011;63557;52.302;7.964;2022-12-08T16:38:51;22.48;;;11.13;;
27580;SDS011;63557;52.302;7.964;2022-12-08T16:43:52;17.17;;;10.23;;
27580;SDS011;63557;52.302;7.964;2022-12-08T16:48:52;19.97;;;10.17;;
27580;SDS011;63557;52.302;7.964;2022-12-08T16:53:53;13.97;;;9.60;;
27580;SDS011;63557;52.302;7.964;2022-12-08T16:58:53;16.30;;;10.55;;
27580;SDS011;63557;52.302;7.964;2022-12-08T17:03:54;17.50;;;11.00;;
27580;SDS011;63557;52.302;7.964;2022-12-08T17:08:54;22.25;;;11.38;;
27580;SDS011;63557;52.302;7.964;2022-12-08T17:13:54;18.80;;;12.40;;
27580;SDS011;63557;52.302;7.964;2022-12-08T17:18:55;19.13;;;13.17;;
27580;SDS011;63557;52.302;7.964;2022-12-08T17:23:55;25.17;;;12.47;;
27580;SDS011;63557;52.302;7.964;2022-12-08T17:28:55;22.33;;;12.90;;
27580;SDS011;63557;52.302;7.964;2022-12-08T17:33:59;25.17;;;13.63;;
27580;SDS011;63557;52.302;7.964;2022-12-08T17:39:00;20.88;;;12.35;;
27580;SDS011;63557;52.302;7.964;2022-12-08T17:44:00;18.40;;;12.02;;
27580;SDS011;63557;52.302;7.964;2022-12-08T17:49:01;23.83;;;12.93;;
27580;SDS011;63557;52.302;7.964;2022-12-08T17:54:01;22.03;;;13.07;;
27580;SDS011;63557;52.302;7.964;2022-12-08T17:59:02;28.92;;;16.38;;
27580;SDS011;63557;52.302;7.964;2022-12-08T18:04:03;21.60;;;13.05;;
27580;SDS011;63557;52.302;7.964;2022-12-08T18:09:04;21.02;;;14.30;;
27580;SDS011;63557;52.302;7.964;2022-12-08T18:14:06;20.00;;;13.75;;
27580;SDS011;63557;52.302;7.964;2022-12-08T18:19:10;25.70;;;13.68;;
27580;SDS011;63557;52.302;7.964;2022-12-08T18:24:15;32.60;;;17.52;;
27580;SDS011;63557;52.302;7.964;2022-12-08T18:29:16;27.17;;;14.88;;
27580;SDS011;63557;52.302;7.964;2022-12-08T18:34:17;23.45;;;15.13;;
27580;SDS011;63557;52.302;7.964;2022-12-08T18:39:22;25.92;;;14.82;;
27580;SDS011;63557;52.302;7.964;2022-12-08T18:44:22;28.15;;;15.75;;
27580;SDS011;63557;52.302;7.964;2022-12-08T18:49:23;27.85;;;16.58;;
27580;SDS011;63557;52.302;7.964;2022-12-08T18:54:24;25.52;;;16.58;;
27580;SDS011;63557;52.302;7.964;2022-12-08T18:59:24;24.40;;;15.57;;
27580;SDS011;63557;52.302;7.964;2022-12-08T19:04:24;22.17;;;15.30;;
27580;SDS011;63557;52.302;7.964;2022-12-08T19:09:25;30.30;;;17.92;;
27580;SDS011;63557;52.302;7.964;2022-12-08T19:14:27;33.00;;;19.38;;
27580;SDS011;63557;52.302;7.964;2022-12-08T19:19:29;32.38;;;19.45;;
27580;SDS011;63557;52.302;7.964;2022-12-08T19:24:30;33.95;;;19.52;;
27580;SDS011;63557;52.302;7.964;2022-12-08T19:29:33;37.47;;;22.83;;
27580;SDS011;63557;52.302;7.964;2022-12-08T19:34:34;35.88;;;21.73;;
27580;SDS011;63557;52.302;7.964;2022-12-08T19:39:34;33.40;;;20.17;;
27580;SDS011;63557;52.302;7.964;2022-12-08T19:44:53;39.83;;;22.23;;
27580;SDS011;63557;52.302;7.964;2022-12-08T19:49:54;37.92;;;20.27;;
27580;SDS011;63557;52.302;7.964;2022-12-08T19:55:14;39.85;;;21.35;;
27580;SDS011;63557;52.302;7.964;2022-12-08T20:00:15;41.88;;;23.35;;
27580;SDS011;63557;52.302;7.964;2022-12-08T20:05:15;42.88;;;23.63;;
27580;SDS011;63557;52.302;7.964;2022-12-08T20:10:18;39.17;;;22.33;;
27580;SDS011;63557;52.302;7.964;2022-12-08T20:15:21;46.40;;;25.63;;
27580;SDS011;63557;52.302;7.964;2022-12-08T20:20:21;48.47;;;24.43;;
27580;SDS011;63557;52.302;7.964;2022-12-08T20:25:21;42.30;;;23.60;;
27580;SDS011;63557;52.302;7.964;2022-12-08T20:30:22;45.47;;;24.63;;
27580;SDS011;63557;52.302;7.964;2022-12-08T20:35:22;42.97;;;24.90;;
27580;SDS011;63557;52.302;7.964;2022-12-08T20:40:22;50.65;;;25.63;;
27580;SDS011;63557;52.302;7.964;2022-12-08T20:45:24;46.63;;;22.48;;
27580;SDS011;63557;52.302;7.964;2022-12-08T20:50:24;51.00;;;25.50;;
27580;SDS011;63557;52.302;7.964;2022-12-08T20:55:24;57.00;;;26.75;;
27580;SDS011;63557;52.302;7.964;2022-12-08T21:00:25;50.53;;;26.17;;
27580;SDS011;63557;52.302;7.964;2022-12-08T21:05:26;52.15;;;24.70;;
27580;SDS011;63557;52.302;7.964;2022-12-08T21:10:27;49.93;;;25.00;;
27580;SDS011;63557;52.302;7.964;2022-12-08T21:15:27;55.72;;;28.45;;
27580;SDS011;63557;52.302;7.964;2022-12-08T21:20:27;57.23;;;31.53;;
27580;SDS011;63557;52.302;7.964;2022-12-08T21:25:28;71.13;;;34.50;;
27580;SDS011;63557;52.302;7.964;2022-12-08T21:30:28;54.67;;;29.27;;
27580;SDS011;63557;52.302;7.964;2022-12-08T21:35:29;54.83;;;30.60;;
27580;SDS011;63557;52.302;7.964;2022-12-08T21:40:29;67.90;;;35.10;;
27580;SDS011;63557;52.302;7.964;2022-12-08T21:45:29;58.07;;;32.30;;
27580;SDS011;63557;52.302;7.964;2022-12-08T21:50:30;59.45;;;31.73;;
27580;SDS011;63557;52.302;7.964;2022-12-08T21:55:30;61.22;;;30.50;;
27580;SDS011;63557;52.302;7.964;2022-12-08T22:00:30;58.67;;;32.38;;
27580;SDS011;63557;52.302;7.964;2022-12-08T22:05:31;66.93;;;34.70;;
27580;SDS011;63557;52.302;7.964;2022-12-08T22:10:31;58.47;;;33.10;;
27580;SDS011;63557;52.302;7.964;2022-12-08T22:15:32;59.65;;;33.05;;
27580;SDS011;63557;52.302;7.964;2022-12-08T22:20:32;71.72;;;35.20;;
27580;SDS011;63557;52.302;7.964;2022-12-08T22:25:33;60.73;;;32.60;;
27580;SDS011;63557;52.302;7.964;2022-12-08T22:30:33;63.53;;;33.07;;
27580;SDS011;63557;52.302;7.964;2022-12-08T22:35:33;57.93;;;31.53;;
27580;SDS011;63557;52.302;7.964;2022-12-08T22:40:34;61.50;;;32.45;;
27580;SDS011;63557;52.302;7.964;2022-12-08T22:45:34;67.57;;;32.95;;
27580;SDS011;63557;52.302;7.964;2022-12-08T22:50:35;61.95;;;33.38;;
27580;SDS011;63557;52.302;7.964;2022-12-08T22:55:39;72.03;;;33.38;;
27580;SDS011;63557;52.302;7.964;2022-12-08T23:00:39;63.50;;;34.07;;
27580;SDS011;63557;52.302;7.964;2022-12-08T23:05:40;76.80;;;36.63;;
27580;SDS011;63557;52.302;7.964;2022-12-08T23:10:40;73.03;;;35.47;;
27580;SDS011;63557;52.302;7.964;2022-12-08T23:15:41;66.07;;;32.95;;
27580;SDS011;63557;52.302;7.964;2022-12-08T23:20:41;64.57;;;31.60;;
27580;SDS011;63557;52.302;7.964;2022-12-08T23:25:42;72.93;;;35.63;;
27580;SDS011;63557;52.302;7.964;2022-12-08T23:30:42;81.78;;;35.95;;
27580;SDS011;63557;52.302;7.964;2022-12-08T23:35:42;82.87;;;38.70;;
27580;SDS011;63557;52.302;7.964;2022-12-08T23:40:43;72.37;;;35.73;;
27580;SDS011;63557;52.302;7.964;2022-12-08T23:45:43;80.57;;;36.03;;
27580;SDS011;63557;52.302;7.964;2022-12-08T23:50:43;70.07;;;34.90;;
27580;SDS011;63557;52.302;7.964;2022-12-08T23:55:44;76.63;;;35.47;;
